sensor_id;sensor_type;location;lat;lon;timestamp;P1;durP1;ratioP1;P2;durP2;ratioP2
15356;SDS011;7778;48.792;9.260;2023-07-20T00:00:34;4.82;;;1.88;;
15356;SDS011;7778;48.792;9.260;2023-07-20T00:03:19;3.55;;;2.10;;
15356;SDS011;7778;48.792;9.260;2023-07-20T00:06:06;5.47;;;1.90;;
15356;SDS011;7778;48.792;9.260;2023-07-20T00:08:54;3.13;;;2.00;;
15356;SDS011;7778;48.792;9.260;2023-07-20T00:11:40;3.65;;;1.80;;
15356;SDS011;7778;48.792;9.260;2023-07-20T00:14:33;2.97;;;1.70;;
15356;SDS011;7778;48.792;9.260;2023-07-20T00:17:19;3.92;;;1.67;;
15356;SDS011;7778;48.792;9.260;2023-07-20T00:20:05;2.50;;;1.45;;
15356;SDS011;7778;48.792;9.260;2023-07-20T00:22:52;2.85;;;1.67;;
15356;SDS011;7778;48.792;9.260;2023-07-20T00:25:40;2.20;;;1.48;;
15356;SDS011;7778;48.792;9.260;2023-07-20T00:28:26;2.55;;;1.70;;
15356;SDS011;7778;48.792;9.260;2023-07-20T00:31:12;2.88;;;1.50;;
15356;SDS011;7778;48.792;9.260;2023-07-20T00:33:57;3.55;;;1.60;;
15356;SDS011;7778;48.792;9.260;2023-07-20T00:36:43;2.88;;;1.40;;
15356;SDS011;7778;48.792;9.260;2023-07-20T00:39:28;2.25;;;1.67;;
15356;SDS011;7778;48.792;9.260;2023-07-20T00:42:15;1.90;;;1.55;;
15356;SDS011;7778;48.792;9.260;2023-07-20T00:45:01;3.15;;;1.60;;
15356;SDS011;7778;48.792;9.260;2023-07-20T00:47:48;3.40;;;1.77;;
15356;SDS011;7778;48.792;9.260;2023-07-20T00:50:33;4.70;;;1.52;;
15356;SDS011;7778;48.792;9.260;2023-07-20T00:53:20;1.90;;;1.40;;
15356;SDS011;7778;48.792;9.260;2023-07-20T00:56:05;3.42;;;1.75;;
15356;SDS011;7778;48.792;9.260;2023-07-20T00:58:54;2.53;;;1.70;;
15356;SDS011;7778;48.792;9.260;2023-07-20T01:01:39;2.58;;;1.88;;
15356;SDS011;7778;48.792;9.260;2023-07-20T01:04:25;5.03;;;1.98;;
15356;SDS011;7778;48.792;9.260;2023-07-20T01:07:13;2.10;;;1.40;;
15356;SDS011;7778;48.792;9.260;2023-07-20T01:10:10;2.88;;;2.00;;
15356;SDS011;7778;48.792;9.260;2023-07-20T01:13:02;2.42;;;1.70;;
15356;SDS011;7778;48.792;9.260;2023-07-20T01:15:52;2.85;;;1.67;;
15356;SDS011;7778;48.792;9.260;2023-07-20T01:18:42;3.95;;;1.65;;
15356;SDS011;7778;48.792;9.260;2023-07-20T01:21:30;1.63;;;1.48;;
15356;SDS011;7778;48.792;9.260;2023-07-20T01:27:47;2.58;;;1.70;;
15356;SDS011;7778;48.792;9.260;2023-07-20T01:31:18;3.58;;;1.50;;
15356;SDS011;7778;48.792;9.260;2023-07-20T01:34:12;1.88;;;1.60;;
15356;SDS011;7778;48.792;9.260;2023-07-20T01:37:02;2.25;;;1.63;;
15356;SDS011;7778;48.792;9.260;2023-07-20T01:39:49;2.50;;;1.60;;
15356;SDS011;7778;48.792;9.260;2023-07-20T01:42:38;3.35;;;1.55;;
15356;SDS011;7778;48.792;9.260;2023-07-20T01:45:28;2.55;;;1.50;;
15356;SDS011;7778;48.792;9.260;2023-07-20T01:48:15;2.20;;;1.30;;
15356;SDS011;7778;48.792;9.260;2023-07-20T01:51:01;3.30;;;1.58;;
15356;SDS011;7778;48.792;9.260;2023-07-20T01:53:46;1.88;;;1.25;;
15356;SDS011;7778;48.792;9.260;2023-07-20T01:56:32;3.28;;;1.70;;
15356;SDS011;7778;48.792;9.260;2023-07-20T01:59:17;2.33;;;1.58;;
15356;SDS011;7778;48.792;9.260;2023-07-20T02:02:03;2.42;;;1.42;;
15356;SDS011;7778;48.792;9.260;2023-07-20T02:04:50;2.50;;;1.70;;
15356;SDS011;7778;48.792;9.260;2023-07-20T02:07:36;2.15;;;1.45;;
15356;SDS011;7778;48.792;9.260;2023-07-20T02:10:21;2.88;;;1.67;;
15356;SDS011;7778;48.792;9.260;2023-07-20T02:13:07;3.92;;;1.52;;
15356;SDS011;7778;48.792;9.260;2023-07-20T02:15:52;3.90;;;1.65;;
15356;SDS011;7778;48.792;9.260;2023-07-20T02:18:38;2.13;;;1.40;;
15356;SDS011;7778;48.792;9.260;2023-07-20T02:21:25;4.50;;;2.25;;
15356;SDS011;7778;48.792;9.260;2023-07-20T02:24:11;2.45;;;1.52;;
15356;SDS011;7778;48.792;9.260;2023-07-20T02:26:57;2.90;;;1.63;;
15356;SDS011;7778;48.792;9.260;2023-07-20T02:29:43;2.55;;;1.42;;
15356;SDS011;7778;48.792;9.260;2023-07-20T02:32:29;2.58;;;1.90;;
15356;SDS011;7778;48.792;9.260;2023-07-20T02:35:15;1.77;;;1.45;;
15356;SDS011;7778;48.792;9.260;2023-07-20T02:38:09;5.90;;;1.67;;
15356;SDS011;7778;48.792;9.260;2023-07-20T02:40:54;3.40;;;1.50;;
15356;SDS011;7778;48.792;9.260;2023-07-20T02:43:40;1.95;;;1.58;;
15356;SDS011;7778;48.792;9.260;2023-07-20T02:46:25;6.70;;;3.05;;
15356;SDS011;7778;48.792;9.260;2023-07-20T02:49:13;6.78;;;3.00;;
15356;SDS011;7778;48.792;9.260;2023-07-20T02:51:59;3.28;;;1.77;;
15356;SDS011;7778;48.792;9.260;2023-07-20T02:54:46;2.55;;;1.77;;
15356;SDS011;7778;48.792;9.260;2023-07-20T02:57:32;3.63;;;2.17;;
15356;SDS011;7778;48.792;9.260;2023-07-20T03:00:17;3.42;;;1.83;;
15356;SDS011;7778;48.792;9.260;2023-07-20T03:03:04;3.72;;;1.77;;
15356;SDS011;7778;48.792;9.260;2023-07-20T03:05:53;3.17;;;2.20;;
15356;SDS011;7778;48.792;9.260;2023-07-20T03:08:39;4.22;;;1.88;;
15356;SDS011;7778;48.792;9.260;2023-07-20T03:11:31;3.88;;;1.92;;
15356;SDS011;7778;48.792;9.260;2023-07-20T03:14:18;3.95;;;1.60;;
15356;SDS011;7778;48.792;9.260;2023-07-20T03:17:03;3.88;;;2.00;;
15356;SDS011;7778;48.792;9.260;2023-07-20T03:19:49;3.25;;;1.92;;
15356;SDS011;7778;48.792;9.260;2023-07-20T03:22:35;2.25;;;1.77;;
15356;SDS011;7778;48.792;9.260;2023-07-20T03:25:21;4.38;;;2.17;;
15356;SDS011;7778;48.792;9.260;2023-07-20T03:28:07;2.97;;;1.63;;
15356;SDS011;7778;48.792;9.260;2023-07-20T03:30:53;4.28;;;1.85;;
15356;SDS011;7778;48.792;9.260;2023-07-20T03:33:39;1.83;;;1.60;;
15356;SDS011;7778;48.792;9.260;2023-07-20T03:36:26;5.40;;;1.83;;
15356;SDS011;7778;48.792;9.260;2023-07-20T03:39:11;2.78;;;1.58;;
15356;SDS011;7778;48.792;9.260;2023-07-20T03:41:57;2.95;;;1.70;;
15356;SDS011;7778;48.792;9.260;2023-07-20T03:44:44;2.75;;;1.50;;
15356;SDS011;7778;48.792;9.260;2023-07-20T03:47:29;3.25;;;1.83;;
15356;SDS011;7778;48.792;9.260;2023-07-20T03:50:15;4.05;;;1.63;;
15356;SDS011;7778;48.792;9.260;2023-07-20T03:53:00;4.38;;;2.30;;
15356;SDS011;7778;48.792;9.260;2023-07-20T03:55:46;4.38;;;2.42;;
15356;SDS011;7778;48.792;9.260;2023-07-20T03:58:33;3.88;;;2.08;;
15356;SDS011;7778;48.792;9.260;2023-07-20T04:01:19;2.63;;;1.65;;
15356;SDS011;7778;48.792;9.260;2023-07-20T04:04:06;3.25;;;1.90;;
15356;SDS011;7778;48.792;9.260;2023-07-20T04:06:52;4.28;;;1.92;;
15356;SDS011;7778;48.792;9.260;2023-07-20T04:09:37;2.47;;;1.80;;
15356;SDS011;7778;48.792;9.260;2023-07-20T04:12:24;3.90;;;2.20;;
15356;SDS011;7778;48.792;9.260;2023-07-20T04:15:10;4.10;;;1.85;;
15356;SDS011;7778;48.792;9.260;2023-07-20T04:17:58;3.58;;;1.67;;
15356;SDS011;7778;48.792;9.260;2023-07-20T04:20:44;2.85;;;1.92;;
15356;SDS011;7778;48.792;9.260;2023-07-20T04:23:30;2.88;;;1.85;;
15356;SDS011;7778;48.792;9.260;2023-07-20T04:26:16;2.60;;;1.67;;
15356;SDS011;7778;48.792;9.260;2023-07-20T04:29:01;2.47;;;1.63;;
15356;SDS011;7778;48.792;9.260;2023-07-20T04:31:47;2.97;;;1.58;;
15356;SDS011;7778;48.792;9.260;2023-07-20T04:34:34;2.85;;;1.80;;
15356;SDS011;7778;48.792;9.260;2023-07-20T04:37:21;3.13;;;1.90;;
15356;SDS011;7778;48.792;9.260;2023-07-20T04:40:07;3.33;;;1.92;;
15356;SDS011;7778;48.792;9.260;2023-07-20T04:42:53;2.85;;;1.50;;
15356;SDS011;7778;48.792;9.260;2023-07-20T04:45:39;5.65;;;1.85;;
15356;SDS011;7778;48.792;9.260;2023-07-20T04:48:24;5.40;;;2.08;;
15356;SDS011;7778;48.792;9.260;2023-07-20T04:51:11;4.85;;;2.35;;
15356;SDS011;7778;48.792;9.260;2023-07-20T04:53:57;4.32;;;1.80;;
15356;SDS011;7778;48.792;9.260;2023-07-20T04:56:43;2.80;;;1.45;;
15356;SDS011;7778;48.792;9.260;2023-07-20T04:59:28;4.70;;;1.83;;
15356;SDS011;7778;48.792;9.260;2023-07-20T05:02:14;3.70;;;1.77;;
15356;SDS011;7778;48.792;9.260;2023-07-20T05:04:59;3.10;;;1.80;;
15356;SDS011;7778;48.792;9.260;2023-07-20T05:07:47;3.67;;;2.10;;
15356;SDS011;7778;48.792;9.260;2023-07-20T05:10:32;4.40;;;1.98;;
15356;SDS011;7778;48.792;9.260;2023-07-20T05:13:18;4.22;;;2.08;;
15356;SDS011;7778;48.792;9.260;2023-07-20T05:16:04;3.00;;;1.90;;
15356;SDS011;7778;48.792;9.260;2023-07-20T05:18:49;5.75;;;2.08;;
15356;SDS011;7778;48.792;9.260;2023-07-20T05:21:35;4.90;;;2.13;;
15356;SDS011;7778;48.792;9.260;2023-07-20T05:24:22;3.22;;;1.80;;
15356;SDS011;7778;48.792;9.260;2023-07-20T05:27:07;3.42;;;1.63;;
15356;SDS011;7778;48.792;9.260;2023-07-20T05:29:53;6.30;;;2.08;;
15356;SDS011;7778;48.792;9.260;2023-07-20T05:32:39;7.63;;;1.85;;
15356;SDS011;7778;48.792;9.260;2023-07-20T05:35:25;2.35;;;1.50;;
15356;SDS011;7778;48.792;9.260;2023-07-20T05:38:11;2.20;;;1.58;;
15356;SDS011;7778;48.792;9.260;2023-07-20T05:41:00;2.33;;;1.50;;
15356;SDS011;7778;48.792;9.260;2023-07-20T05:43:47;2.63;;;1.92;;
15356;SDS011;7778;48.792;9.260;2023-07-20T05:46:32;2.75;;;2.05;;
15356;SDS011;7778;48.792;9.260;2023-07-20T05:49:18;3.17;;;1.70;;
15356;SDS011;7778;48.792;9.260;2023-07-20T05:52:03;2.90;;;1.65;;
15356;SDS011;7778;48.792;9.260;2023-07-20T05:54:50;6.32;;;2.00;;
15356;SDS011;7778;48.792;9.260;2023-07-20T05:57:37;3.90;;;1.85;;
15356;SDS011;7778;48.792;9.260;2023-07-20T06:00:25;4.50;;;1.77;;
15356;SDS011;7778;48.792;9.260;2023-07-20T06:03:11;3.33;;;1.77;;
15356;SDS011;7778;48.792;9.260;2023-07-20T06:05:57;3.90;;;1.88;;
15356;SDS011;7778;48.792;9.260;2023-07-20T06:08:44;2.83;;;1.25;;
15356;SDS011;7778;48.792;9.260;2023-07-20T06:11:30;2.95;;;1.70;;
15356;SDS011;7778;48.792;9.260;2023-07-20T06:14:17;3.55;;;1.65;;
15356;SDS011;7778;48.792;9.260;2023-07-20T06:17:03;3.05;;;2.35;;
15356;SDS011;7778;48.792;9.260;2023-07-20T06:19:49;2.75;;;1.67;;
15356;SDS011;7778;48.792;9.260;2023-07-20T06:22:35;4.28;;;1.83;;
15356;SDS011;7778;48.792;9.260;2023-07-20T06:25:20;3.42;;;1.92;;
15356;SDS011;7778;48.792;9.260;2023-07-20T06:28:06;3.13;;;1.65;;
15356;SDS011;7778;48.792;9.260;2023-07-20T06:30:54;5.25;;;1.85;;
15356;SDS011;7778;48.792;9.260;2023-07-20T06:33:44;4.18;;;2.22;;
15356;SDS011;7778;48.792;9.260;2023-07-20T06:36:30;2.47;;;1.70;;
15356;SDS011;7778;48.792;9.260;2023-07-20T06:39:15;4.68;;;1.80;;
15356;SDS011;7778;48.792;9.260;2023-07-20T06:42:01;4.85;;;1.77;;
15356;SDS011;7778;48.792;9.260;2023-07-20T06:44:47;3.92;;;1.75;;
15356;SDS011;7778;48.792;9.260;2023-07-20T06:47:34;2.38;;;1.75;;
15356;SDS011;7778;48.792;9.260;2023-07-20T06:50:19;2.63;;;1.60;;
15356;SDS011;7778;48.792;9.260;2023-07-20T06:53:05;2.13;;;1.70;;
15356;SDS011;7778;48.792;9.260;2023-07-20T06:55:50;3.38;;;2.20;;
15356;SDS011;7778;48.792;9.260;2023-07-20T06:58:36;3.30;;;1.65;;
15356;SDS011;7778;48.792;9.260;2023-07-20T07:01:21;2.50;;;1.75;;
15356;SDS011;7778;48.792;9.260;2023-07-20T07:04:08;3.60;;;2.10;;
15356;SDS011;7778;48.792;9.260;2023-07-20T07:06:54;6.82;;;2.00;;
15356;SDS011;7778;48.792;9.260;2023-07-20T07:09:39;3.35;;;1.80;;
15356;SDS011;7778;48.792;9.260;2023-07-20T07:12:25;3.83;;;1.90;;
15356;SDS011;7778;48.792;9.260;2023-07-20T07:15:11;4.93;;;2.17;;
15356;SDS011;7778;48.792;9.260;2023-07-20T07:17:56;2.47;;;1.55;;
15356;SDS011;7778;48.792;9.260;2023-07-20T07:20:50;3.45;;;1.60;;
15356;SDS011;7778;48.792;9.260;2023-07-20T07:23:37;2.75;;;1.58;;
15356;SDS011;7778;48.792;9.260;2023-07-20T07:26:23;2.78;;;1.80;;
15356;SDS011;7778;48.792;9.260;2023-07-20T07:29:08;3.80;;;1.70;;
15356;SDS011;7778;48.792;9.260;2023-07-20T07:31:54;3.20;;;1.60;;
15356;SDS011;7778;48.792;9.260;2023-07-20T07:34:40;2.97;;;1.73;;
15356;SDS011;7778;48.792;9.260;2023-07-20T07:37:27;4.20;;;1.90;;
15356;SDS011;7778;48.792;9.260;2023-07-20T07:40:12;5.35;;;1.90;;
15356;SDS011;7778;48.792;9.260;2023-07-20T07:43:00;1.95;;;1.50;;
15356;SDS011;7778;48.792;9.260;2023-07-20T07:45:47;3.08;;;1.52;;
15356;SDS011;7778;48.792;9.260;2023-07-20T07:48:33;2.33;;;1.60;;
15356;SDS011;7778;48.792;9.260;2023-07-20T07:51:19;3.53;;;1.70;;
15356;SDS011;7778;48.792;9.260;2023-07-20T07:54:06;1.70;;;1.42;;
15356;SDS011;7778;48.792;9.260;2023-07-20T07:56:52;1.90;;;1.58;;
15356;SDS011;7778;48.792;9.260;2023-07-20T07:59:37;2.70;;;1.42;;
15356;SDS011;7778;48.792;9.260;2023-07-20T08:02:23;1.77;;;1.65;;
15356;SDS011;7778;48.792;9.260;2023-07-20T08:05:08;4.53;;;1.77;;
15356;SDS011;7778;48.792;9.260;2023-07-20T08:07:54;1.58;;;1.40;;
15356;SDS011;7778;48.792;9.260;2023-07-20T08:10:41;3.65;;;1.95;;
15356;SDS011;7778;48.792;9.260;2023-07-20T08:13:27;2.85;;;1.60;;
15356;SDS011;7778;48.792;9.260;2023-07-20T08:16:12;5.22;;;2.00;;
15356;SDS011;7778;48.792;9.260;2023-07-20T08:18:59;3.60;;;1.85;;
15356;SDS011;7778;48.792;9.260;2023-07-20T08:21:45;3.92;;;2.15;;
15356;SDS011;7778;48.792;9.260;2023-07-20T08:24:31;4.88;;;1.65;;
15356;SDS011;7778;48.792;9.260;2023-07-20T08:27:18;2.75;;;1.73;;
15356;SDS011;7778;48.792;9.260;2023-07-20T08:30:05;2.90;;;1.83;;
15356;SDS011;7778;48.792;9.260;2023-07-20T08:32:52;2.38;;;1.73;;
15356;SDS011;7778;48.792;9.260;2023-07-20T08:35:38;4.20;;;2.00;;
15356;SDS011;7778;48.792;9.260;2023-07-20T08:38:24;5.47;;;2.13;;
15356;SDS011;7778;48.792;9.260;2023-07-20T08:41:09;2.80;;;1.70;;
15356;SDS011;7778;48.792;9.260;2023-07-20T08:43:56;3.25;;;1.58;;
15356;SDS011;7778;48.792;9.260;2023-07-20T08:46:43;3.22;;;1.60;;
15356;SDS011;7778;48.792;9.260;2023-07-20T08:49:29;2.30;;;1.70;;
15356;SDS011;7778;48.792;9.260;2023-07-20T08:52:17;2.28;;;1.60;;
15356;SDS011;7778;48.792;9.260;2023-07-20T08:55:03;3.92;;;1.48;;
15356;SDS011;7778;48.792;9.260;2023-07-20T08:57:50;2.55;;;1.38;;
15356;SDS011;7778;48.792;9.260;2023-07-20T09:00:41;3.65;;;1.50;;
15356;SDS011;7778;48.792;9.260;2023-07-20T09:03:27;2.72;;;1.52;;
15356;SDS011;7778;48.792;9.260;2023-07-20T09:06:12;3.55;;;1.75;;
15356;SDS011;7778;48.792;9.260;2023-07-20T09:08:58;1.52;;;1.35;;
15356;SDS011;7778;48.792;9.260;2023-07-20T09:11:46;2.05;;;1.70;;
15356;SDS011;7778;48.792;9.260;2023-07-20T09:14:32;2.70;;;1.55;;
15356;SDS011;7778;48.792;9.260;2023-07-20T09:17:24;4.07;;;1.77;;
15356;SDS011;7778;48.792;9.260;2023-07-20T09:20:11;2.58;;;1.70;;
15356;SDS011;7778;48.792;9.260;2023-07-20T09:22:57;1.85;;;1.70;;
15356;SDS011;7778;48.792;9.260;2023-07-20T09:25:42;3.13;;;2.03;;
15356;SDS011;7778;48.792;9.260;2023-07-20T09:28:29;2.00;;;1.73;;
15356;SDS011;7778;48.792;9.260;2023-07-20T09:31:26;1.42;;;1.30;;
15356;SDS011;7778;48.792;9.260;2023-07-20T09:34:13;2.35;;;1.77;;
15356;SDS011;7778;48.792;9.260;2023-07-20T09:36:58;2.55;;;1.73;;
15356;SDS011;7778;48.792;9.260;2023-07-20T09:39:44;2.67;;;1.60;;
15356;SDS011;7778;48.792;9.260;2023-07-20T09:42:30;3.00;;;1.33;;
15356;SDS011;7778;48.792;9.260;2023-07-20T09:45:16;1.77;;;1.42;;
15356;SDS011;7778;48.792;9.260;2023-07-20T09:48:03;1.42;;;1.33;;
15356;SDS011;7778;48.792;9.260;2023-07-20T09:50:51;1.80;;;1.63;;
15356;SDS011;7778;48.792;9.260;2023-07-20T09:53:38;3.58;;;1.50;;
15356;SDS011;7778;48.792;9.260;2023-07-20T09:56:24;4.93;;;1.50;;
15356;SDS011;7778;48.792;9.260;2023-07-20T09:59:11;3.42;;;1.65;;
15356;SDS011;7778;48.792;9.260;2023-07-20T10:01:57;3.22;;;1.70;;
15356;SDS011;7778;48.792;9.260;2023-07-20T10:04:46;4.68;;;1.77;;
15356;SDS011;7778;48.792;9.260;2023-07-20T10:07:35;3.08;;;1.52;;
15356;SDS011;7778;48.792;9.260;2023-07-20T10:10:29;1.67;;;1.45;;
15356;SDS011;7778;48.792;9.260;2023-07-20T10:13:17;2.20;;;1.42;;
15356;SDS011;7778;48.792;9.260;2023-07-20T10:16:07;2.88;;;1.13;;
15356;SDS011;7778;48.792;9.260;2023-07-20T10:19:13;2.47;;;1.40;;
15356;SDS011;7778;48.792;9.260;2023-07-20T10:22:10;2.08;;;1.48;;
15356;SDS011;7778;48.792;9.260;2023-07-20T10:25:02;2.58;;;1.10;;
15356;SDS011;7778;48.792;9.260;2023-07-20T10:27:49;1.67;;;1.58;;
15356;SDS011;7778;48.792;9.260;2023-07-20T10:30:35;2.95;;;1.23;;
15356;SDS011;7778;48.792;9.260;2023-07-20T10:33:21;1.50;;;1.40;;
15356;SDS011;7778;48.792;9.260;2023-07-20T10:36:09;3.65;;;1.70;;
15356;SDS011;7778;48.792;9.260;2023-07-20T10:38:56;1.77;;;1.10;;
15356;SDS011;7778;48.792;9.260;2023-07-20T10:41:42;2.10;;;1.10;;
15356;SDS011;7778;48.792;9.260;2023-07-20T10:44:28;1.27;;;1.17;;
15356;SDS011;7778;48.792;9.260;2023-07-20T10:47:15;2.53;;;1.58;;
15356;SDS011;7778;48.792;9.260;2023-07-20T10:50:01;1.77;;;1.48;;
15356;SDS011;7778;48.792;9.260;2023-07-20T10:52:57;2.30;;;1.05;;
15356;SDS011;7778;48.792;9.260;2023-07-20T10:55:50;1.60;;;1.35;;
15356;SDS011;7778;48.792;9.260;2023-07-20T10:58:55;1.40;;;1.25;;
15356;SDS011;7778;48.792;9.260;2023-07-20T11:01:43;1.52;;;1.15;;
15356;SDS011;7778;48.792;9.260;2023-07-20T11:04:40;1.88;;;1.10;;
15356;SDS011;7778;48.792;9.260;2023-07-20T11:07:36;1.58;;;1.10;;
15356;SDS011;7778;48.792;9.260;2023-07-20T11:10:24;1.33;;;1.20;;
15356;SDS011;7778;48.792;9.260;2023-07-20T11:13:17;3.03;;;1.10;;
15356;SDS011;7778;48.792;9.260;2023-07-20T11:16:09;1.67;;;1.10;;
15356;SDS011;7778;48.792;9.260;2023-07-20T11:18:54;3.03;;;0.98;;
15356;SDS011;7778;48.792;9.260;2023-07-20T11:21:41;1.85;;;1.27;;
15356;SDS011;7778;48.792;9.260;2023-07-20T11:24:29;1.90;;;1.20;;
15356;SDS011;7778;48.792;9.260;2023-07-20T11:27:16;2.65;;;1.00;;
15356;SDS011;7778;48.792;9.260;2023-07-20T11:30:15;1.25;;;1.15;;
15356;SDS011;7778;48.792;9.260;2023-07-20T11:33:01;1.70;;;0.85;;
15356;SDS011;7778;48.792;9.260;2023-07-20T11:35:48;2.22;;;1.05;;
15356;SDS011;7778;48.792;9.260;2023-07-20T11:38:36;3.63;;;1.20;;
15356;SDS011;7778;48.792;9.260;2023-07-20T11:41:26;2.70;;;1.10;;
15356;SDS011;7778;48.792;9.260;2023-07-20T11:44:13;1.45;;;0.95;;
15356;SDS011;7778;48.792;9.260;2023-07-20T11:47:00;2.70;;;1.02;;
15356;SDS011;7778;48.792;9.260;2023-07-20T11:49:47;3.20;;;1.27;;
15356;SDS011;7778;48.792;9.260;2023-07-20T11:52:37;1.45;;;1.10;;
15356;SDS011;7778;48.792;9.260;2023-07-20T11:55:23;0.93;;;0.93;;
15356;SDS011;7778;48.792;9.260;2023-07-20T11:58:09;1.75;;;1.20;;
15356;SDS011;7778;48.792;9.260;2023-07-20T12:00:56;2.03;;;1.25;;
15356;SDS011;7778;48.792;9.260;2023-07-20T12:03:43;4.55;;;1.15;;
15356;SDS011;7778;48.792;9.260;2023-07-20T12:06:31;0.85;;;0.85;;
15356;SDS011;7778;48.792;9.260;2023-07-20T12:09:17;1.23;;;1.02;;
15356;SDS011;7778;48.792;9.260;2023-07-20T12:12:08;1.85;;;1.30;;
15356;SDS011;7778;48.792;9.260;2023-07-20T12:14:56;1.35;;;1.00;;
15356;SDS011;7778;48.792;9.260;2023-07-20T12:18:02;3.30;;;1.30;;
15356;SDS011;7778;48.792;9.260;2023-07-20T12:20:50;1.10;;;1.00;;
15356;SDS011;7778;48.792;9.260;2023-07-20T12:23:44;2.78;;;1.20;;
15356;SDS011;7778;48.792;9.260;2023-07-20T12:26:31;1.00;;;1.00;;
15356;SDS011;7778;48.792;9.260;2023-07-20T12:29:18;1.27;;;1.05;;
15356;SDS011;7778;48.792;9.260;2023-07-20T12:32:04;3.03;;;1.27;;
15356;SDS011;7778;48.792;9.260;2023-07-20T12:34:52;3.30;;;1.23;;
15356;SDS011;7778;48.792;9.260;2023-07-20T12:37:38;2.85;;;1.17;;
15356;SDS011;7778;48.792;9.260;2023-07-20T12:40:23;1.33;;;1.23;;
15356;SDS011;7778;48.792;9.260;2023-07-20T12:43:09;3.22;;;1.27;;
15356;SDS011;7778;48.792;9.260;2023-07-20T12:45:54;1.55;;;1.40;;
15356;SDS011;7778;48.792;9.260;2023-07-20T12:48:41;2.70;;;0.93;;
15356;SDS011;7778;48.792;9.260;2023-07-20T12:51:28;1.20;;;1.10;;
15356;SDS011;7778;48.792;9.260;2023-07-20T12:54:14;3.40;;;1.23;;
15356;SDS011;7778;48.792;9.260;2023-07-20T12:56:59;1.70;;;1.08;;
15356;SDS011;7778;48.792;9.260;2023-07-20T12:59:46;2.22;;;1.40;;
15356;SDS011;7778;48.792;9.260;2023-07-20T13:02:32;2.00;;;1.60;;
15356;SDS011;7778;48.792;9.260;2023-07-20T13:05:18;1.70;;;1.20;;
15356;SDS011;7778;48.792;9.260;2023-07-20T13:08:05;3.17;;;1.13;;
15356;SDS011;7778;48.792;9.260;2023-07-20T13:10:50;3.95;;;1.35;;
15356;SDS011;7778;48.792;9.260;2023-07-20T13:13:36;3.08;;;1.17;;
15356;SDS011;7778;48.792;9.260;2023-07-20T13:16:21;2.40;;;1.30;;
15356;SDS011;7778;48.792;9.260;2023-07-20T13:19:07;1.83;;;1.17;;
15356;SDS011;7778;48.792;9.260;2023-07-20T13:21:53;1.65;;;1.48;;
15356;SDS011;7778;48.792;9.260;2023-07-20T13:24:41;1.45;;;1.13;;
15356;SDS011;7778;48.792;9.260;2023-07-20T13:27:29;1.15;;;1.05;;
15356;SDS011;7778;48.792;9.260;2023-07-20T13:30:15;1.92;;;1.30;;
15356;SDS011;7778;48.792;9.260;2023-07-20T13:33:01;2.08;;;1.50;;
15356;SDS011;7778;48.792;9.260;2023-07-20T13:35:47;1.10;;;1.05;;
15356;SDS011;7778;48.792;9.260;2023-07-20T13:38:32;1.98;;;1.15;;
15356;SDS011;7778;48.792;9.260;2023-07-20T13:41:20;1.20;;;0.98;;
15356;SDS011;7778;48.792;9.260;2023-07-20T13:44:06;1.80;;;1.00;;
15356;SDS011;7778;48.792;9.260;2023-07-20T13:46:51;1.52;;;1.10;;
15356;SDS011;7778;48.792;9.260;2023-07-20T13:49:37;1.30;;;1.20;;
15356;SDS011;7778;48.792;9.260;2023-07-20T13:52:23;3.00;;;1.10;;
15356;SDS011;7778;48.792;9.260;2023-07-20T13:55:09;1.23;;;1.00;;
15356;SDS011;7778;48.792;9.260;2023-07-20T13:57:56;1.50;;;1.30;;
15356;SDS011;7778;48.792;9.260;2023-07-20T14:00:41;2.17;;;1.35;;
15356;SDS011;7778;48.792;9.260;2023-07-20T14:03:27;1.80;;;1.20;;
15356;SDS011;7778;48.792;9.260;2023-07-20T14:06:13;2.05;;;1.20;;
15356;SDS011;7778;48.792;9.260;2023-07-20T14:08:58;2.70;;;1.67;;
15356;SDS011;7778;48.792;9.260;2023-07-20T14:11:44;1.02;;;1.02;;
15356;SDS011;7778;48.792;9.260;2023-07-20T14:14:31;1.00;;;0.88;;
15356;SDS011;7778;48.792;9.260;2023-07-20T14:17:17;1.83;;;1.27;;
15356;SDS011;7778;48.792;9.260;2023-07-20T14:20:03;2.67;;;1.00;;
15356;SDS011;7778;48.792;9.260;2023-07-20T14:22:51;2.10;;;1.23;;
15356;SDS011;7778;48.792;9.260;2023-07-20T14:25:37;1.25;;;0.88;;
15356;SDS011;7778;48.792;9.260;2023-07-20T14:28:24;1.92;;;1.33;;
15356;SDS011;7778;48.792;9.260;2023-07-20T14:31:11;1.48;;;1.02;;
15356;SDS011;7778;48.792;9.260;2023-07-20T14:33:56;3.40;;;1.02;;
15356;SDS011;7778;48.792;9.260;2023-07-20T14:36:42;0.88;;;0.70;;
15356;SDS011;7778;48.792;9.260;2023-07-20T14:39:27;1.85;;;1.05;;
15356;SDS011;7778;48.792;9.260;2023-07-20T14:42:13;2.55;;;1.20;;
15356;SDS011;7778;48.792;9.260;2023-07-20T14:44:59;1.30;;;0.95;;
15356;SDS011;7778;48.792;9.260;2023-07-20T14:47:46;3.55;;;1.70;;
15356;SDS011;7778;48.792;9.260;2023-07-20T14:50:37;2.13;;;1.00;;
15356;SDS011;7778;48.792;9.260;2023-07-20T14:53:23;2.22;;;1.00;;
15356;SDS011;7778;48.792;9.260;2023-07-20T14:56:12;2.22;;;1.15;;
15356;SDS011;7778;48.792;9.260;2023-07-20T14:58:57;2.90;;;1.25;;
15356;SDS011;7778;48.792;9.260;2023-07-20T15:01:44;1.60;;;1.02;;
15356;SDS011;7778;48.792;9.260;2023-07-20T15:04:34;1.15;;;1.05;;
15356;SDS011;7778;48.792;9.260;2023-07-20T15:07:20;3.55;;;1.08;;
15356;SDS011;7778;48.792;9.260;2023-07-20T15:10:06;2.83;;;0.90;;
15356;SDS011;7778;48.792;9.260;2023-07-20T15:12:53;1.65;;;1.20;;
15356;SDS011;7778;48.792;9.260;2023-07-20T15:15:39;1.02;;;0.80;;
15356;SDS011;7778;48.792;9.260;2023-07-20T15:18:25;1.98;;;1.30;;
15356;SDS011;7778;48.792;9.260;2023-07-20T15:21:11;1.83;;;1.10;;
15356;SDS011;7778;48.792;9.260;2023-07-20T15:23:57;2.17;;;1.10;;
15356;SDS011;7778;48.792;9.260;2023-07-20T15:26:43;1.40;;;1.10;;
15356;SDS011;7778;48.792;9.260;2023-07-20T15:29:29;1.73;;;1.10;;
15356;SDS011;7778;48.792;9.260;2023-07-20T15:32:15;3.28;;;1.25;;
15356;SDS011;7778;48.792;9.260;2023-07-20T15:35:02;2.50;;;0.68;;
15356;SDS011;7778;48.792;9.260;2023-07-20T15:37:51;1.05;;;0.80;;
15356;SDS011;7778;48.792;9.260;2023-07-20T15:40:36;3.78;;;1.13;;
15356;SDS011;7778;48.792;9.260;2023-07-20T15:43:22;1.23;;;1.10;;
15356;SDS011;7778;48.792;9.260;2023-07-20T15:49:36;2.05;;;1.23;;
15356;SDS011;7778;48.792;9.260;2023-07-20T15:52:22;1.40;;;1.15;;
15356;SDS011;7778;48.792;9.260;2023-07-20T15:55:09;1.67;;;1.10;;
15356;SDS011;7778;48.792;9.260;2023-07-20T15:57:56;1.33;;;0.98;;
15356;SDS011;7778;48.792;9.260;2023-07-20T16:00:41;1.90;;;1.23;;
15356;SDS011;7778;48.792;9.260;2023-07-20T16:03:27;1.33;;;1.05;;
15356;SDS011;7778;48.792;9.260;2023-07-20T16:06:12;1.77;;;1.05;;
15356;SDS011;7778;48.792;9.260;2023-07-20T16:08:58;2.17;;;1.02;;
15356;SDS011;7778;48.792;9.260;2023-07-20T16:11:45;1.50;;;1.40;;
15356;SDS011;7778;48.792;9.260;2023-07-20T16:14:31;2.05;;;1.30;;
15356;SDS011;7778;48.792;9.260;2023-07-20T16:17:16;0.73;;;0.73;;
15356;SDS011;7778;48.792;9.260;2023-07-20T16:20:02;1.48;;;1.10;;
15356;SDS011;7778;48.792;9.260;2023-07-20T16:22:48;1.23;;;1.02;;
15356;SDS011;7778;48.792;9.260;2023-07-20T16:25:34;1.38;;;1.05;;
15356;SDS011;7778;48.792;9.260;2023-07-20T16:28:21;2.15;;;1.25;;
15356;SDS011;7778;48.792;9.260;2023-07-20T16:31:10;1.45;;;1.13;;
15356;SDS011;7778;48.792;9.260;2023-07-20T16:33:56;1.80;;;1.20;;
15356;SDS011;7778;48.792;9.260;2023-07-20T16:36:42;1.40;;;1.25;;
15356;SDS011;7778;48.792;9.260;2023-07-20T16:39:27;1.23;;;0.95;;
15356;SDS011;7778;48.792;9.260;2023-07-20T16:42:14;2.63;;;1.40;;
15356;SDS011;7778;48.792;9.260;2023-07-20T16:45:01;3.17;;;2.00;;
15356;SDS011;7778;48.792;9.260;2023-07-20T16:47:48;1.63;;;1.20;;
15356;SDS011;7778;48.792;9.260;2023-07-20T16:50:34;1.25;;;1.15;;
15356;SDS011;7778;48.792;9.260;2023-07-20T16:53:19;2.92;;;1.20;;
15356;SDS011;7778;48.792;9.260;2023-07-20T16:56:05;1.95;;;1.27;;
15356;SDS011;7778;48.792;9.260;2023-07-20T16:58:50;1.77;;;1.27;;
15356;SDS011;7778;48.792;9.260;2023-07-20T17:01:37;2.17;;;1.13;;
15356;SDS011;7778;48.792;9.260;2023-07-20T17:04:23;2.55;;;1.30;;
15356;SDS011;7778;48.792;9.260;2023-07-20T17:07:08;2.33;;;1.10;;